Time;durP1;ratioP1;P1;durP2;ratioP2;P2;SDS_P1;SDS_P2;PMS_P1;PMS_P2;Temp;Humidity;BMP_temperature;BMP_pressure;BME280_temperature;BME280_humidity;BME280_pressure;Samples;Min_cycle;Max_cycle;Signal;HPM_P1;HPM_P2
2022/05/27 00:00:53;;;;;;;2.37;2.17;;;12.60;99.90;;;;;;5093744;28;20449;-73
2022/05/27 00:03:20;;;;;;;9.87;3.70;;;12.60;99.90;;;;;;5093513;28;20476;-72
2022/05/27 00:05:50;;;;;;;2.17;2.00;;;12.60;99.90;;;;;;5093664;28;20799;-73
2022/05/27 00:08:18;;;;;;;2.13;1.70;;;12.70;99.90;;;;;;5092828;28;20461;-73
2022/05/27 00:10:45;;;;;;;3.03;2.40;;;12.60;99.90;;;;;;5093738;28;20453;-73
2022/05/27 00:13:12;;;;;;;1.83;1.70;;;12.60;99.90;;;;;;5093271;28;20883;-72
2022/05/27 00:15:39;;;;;;;1.77;1.67;;;12.60;99.90;;;;;;5093547;28;20473;-73
2022/05/27 00:18:06;;;;;;;1.97;1.87;;;12.60;99.90;;;;;;5092896;28;20469;-73
2022/05/27 00:20:33;;;;;;;2.90;2.30;;;12.70;99.90;;;;;;5093626;28;20461;-73
2022/05/27 00:22:59;;;;;;;1.93;1.30;;;12.70;99.90;;;;;;5093034;28;20480;-72
2022/05/27 00:25:28;;;;;;;2.50;2.00;;;12.80;99.90;;;;;;5093329;28;20948;-72
2022/05/27 00:27:55;;;;;;;1.70;1.53;;;12.80;99.90;;;;;;5093059;28;20469;-72
2022/05/27 00:30:22;;;;;;;3.00;1.57;;;12.80;99.90;;;;;;5093295;28;20488;-73
2022/05/27 00:32:49;;;;;;;2.77;1.87;;;12.80;99.90;;;;;;5092914;28;20499;-73
2022/05/27 00:35:16;;;;;;;2.30;1.93;;;12.80;99.90;;;;;;5093080;28;20465;-72
2022/05/27 00:37:43;;;;;;;1.80;1.70;;;12.80;99.90;;;;;;5093128;28;20462;-72
2022/05/27 00:40:12;;;;;;;2.07;1.67;;;12.80;99.90;;;;;;5092201;28;20478;-72
2022/05/27 00:42:41;;;;;;;2.10;1.90;;;12.70;99.90;;;;;;5093106;28;20493;-73
2022/05/27 00:45:14;;;;;;;2.47;2.03;;;12.70;99.90;;;;;;5092487;28;20458;-72
2022/05/27 00:47:42;;;;;;;1.50;1.40;;;12.60;99.90;;;;;;5093153;28;20466;-73
2022/05/27 00:50:12;;;;;;;2.13;1.93;;;12.60;99.90;;;;;;5092127;28;20472;-72
2022/05/27 00:52:41;;;;;;;4.57;1.97;;;12.60;99.90;;;;;;5092620;28;20485;-72
2022/05/27 00:55:11;;;;;;;2.47;2.10;;;12.50;99.90;;;;;;5092547;28;20465;-72
2022/05/27 00:57:44;;;;;;;1.87;1.77;;;12.50;99.90;;;;;;5092739;28;20464;-73
2022/05/27 01:00:14;;;;;;;1.97;1.73;;;12.40;99.90;;;;;;5092141;28;20871;-73
2022/05/27 01:02:41;;;;;;;2.30;2.10;;;12.40;99.90;;;;;;5092187;28;20539;-72
2022/05/27 01:05:11;;;;;;;3.27;1.70;;;12.30;99.90;;;;;;5092279;28;20839;-73
2022/05/27 01:07:38;;;;;;;2.13;1.80;;;12.30;99.90;;;;;;5092192;28;20480;-73
2022/05/27 01:10:09;;;;;;;5.40;2.07;;;12.20;99.90;;;;;;5091726;28;20813;-73
2022/05/27 01:12:59;;;;;;;2.50;2.10;;;12.20;99.90;;;;;;5092072;28;20481;-73
2022/05/27 01:15:35;;;;;;;2.20;1.97;;;12.20;99.90;;;;;;5092394;28;20449;-72
2022/05/27 01:18:21;;;;;;;2.03;1.80;;;12.10;99.90;;;;;;5091510;28;20836;-73
2022/05/27 01:20:55;;;;;;;3.97;2.10;;;12.10;99.90;;;;;;5092280;28;20980;-73
2022/05/27 01:23:52;;;;;;;2.40;2.07;;;12.00;99.90;;;;;;5092065;28;20465;-74
2022/05/27 01:26:42;;;;;;;2.90;2.00;;;12.00;99.90;;;;;;5092032;28;20460;-74
2022/05/27 01:29:47;;;;;;;1.50;1.40;;;12.00;99.90;;;;;;5091261;28;20960;-74
2022/05/27 01:32:19;;;;;;;4.07;2.10;;;11.90;99.90;;;;;;5076389;28;20473;-74
2022/05/27 01:34:55;;;;;;;3.10;1.70;;;11.90;99.90;;;;;;5091902;28;20824;-74
2022/05/27 01:37:30;;;;;;;2.33;1.90;;;11.80;99.90;;;;;;5091872;28;20461;-73
2022/05/27 01:40:07;;;;;;;2.25;1.83;;;11.80;99.90;;;;;;5091275;28;20462;-74
2022/05/27 01:42:43;;;;;;;4.53;2.00;;;11.80;99.90;;;;;;5091766;28;20224;-73
2022/05/27 01:45:14;;;;;;;2.05;1.85;;;11.70;99.90;;;;;;5091609;28;20473;-74
2022/05/27 01:47:52;;;;;;;1.73;1.63;;;11.70;99.90;;;;;;5091528;28;20591;-74
2022/05/27 01:50:25;;;;;;;1.80;1.70;;;11.70;99.90;;;;;;5091162;28;20465;-74
2022/05/27 01:52:56;;;;;;;1.70;1.60;;;11.70;99.90;;;;;;5091170;28;20227;-74
2022/05/27 01:55:29;;;;;;;1.83;1.65;;;11.60;99.90;;;;;;5091561;28;20487;-75
2022/05/27 01:58:00;;;;;;;1.90;1.75;;;11.50;99.90;;;;;;5091269;28;20196;-74
2022/05/27 02:00:29;;;;;;;1.95;1.75;;;11.50;99.90;;;;;;5091621;28;20204;-73
2022/05/27 02:03:01;;;;;;;2.90;2.13;;;11.50;99.90;;;;;;5091239;28;20215;-74
2022/05/27 02:05:32;;;;;;;2.57;2.00;;;11.50;99.90;;;;;;5091046;28;20580;-74
2022/05/27 02:08:04;;;;;;;2.03;1.83;;;11.50;99.90;;;;;;5091000;28;21173;-74
2022/05/27 02:10:35;;;;;;;5.60;2.50;;;11.50;99.90;;;;;;5091047;28;20196;-74
2022/05/27 02:13:08;;;;;;;2.97;2.10;;;11.60;99.90;;;;;;5091175;28;20480;-74
2022/05/27 02:15:40;;;;;;;2.58;2.00;;;11.50;99.90;;;;;;5091127;28;20670;-74
2022/05/27 02:18:18;;;;;;;4.68;2.10;;;11.50;99.90;;;;;;5090630;28;20573;-74
2022/05/27 02:20:52;;;;;;;2.07;1.70;;;11.50;99.90;;;;;;5090767;28;20572;-74
2022/05/27 02:23:23;;;;;;;3.15;2.63;;;11.50;99.90;;;;;;5091041;28;20482;-74
2022/05/27 02:25:54;;;;;;;1.90;1.70;;;11.40;99.90;;;;;;5091109;28;20204;-74
2022/05/27 02:28:26;;;;;;;4.20;2.10;;;11.40;99.90;;;;;;5090434;28;20268;-74
2022/05/27 02:30:57;;;;;;;2.17;1.90;;;11.40;99.90;;;;;;5090987;28;20210;-74
2022/05/27 02:36:17;;;;;;;1.95;1.73;;;11.50;99.90;;;;;;5090937;28;20527;-74
2022/05/27 02:38:44;;;;;;;2.55;2.35;;;11.50;99.90;;;;;;5090400;28;20580;-74
2022/05/27 02:41:17;;;;;;;2.08;1.70;;;11.40;99.90;;;;;;5090799;28;20200;-74
2022/05/27 02:43:55;;;;;;;2.58;1.95;;;11.40;99.90;;;;;;5090711;28;20215;-74
2022/05/27 02:46:30;;;;;;;2.38;1.67;;;11.40;99.90;;;;;;5091066;28;20203;-73
2022/05/27 02:49:06;;;;;;;2.80;1.55;;;11.40;99.90;;;;;;5089935;28;20202;-73
2022/05/27 02:51:40;;;;;;;1.90;1.80;;;11.40;99.90;;;;;;5090630;28;20211;-74
2022/05/27 02:54:16;;;;;;;3.50;1.98;;;11.40;99.90;;;;;;5090496;28;20647;-73
2022/05/27 02:56:49;;;;;;;2.58;2.05;;;11.30;99.90;;;;;;5090969;28;20570;-73
2022/05/27 02:59:19;;;;;;;4.10;2.15;;;11.30;99.90;;;;;;5090104;28;20584;-73
2022/05/27 03:01:47;;;;;;;3.92;2.00;;;11.30;99.90;;;;;;5090442;28;20207;-74
2022/05/27 03:04:16;;;;;;;2.13;2.03;;;11.30;99.90;;;;;;5090472;28;20253;-74
2022/05/27 03:06:55;;;;;;;3.05;1.90;;;11.30;99.90;;;;;;5090417;28;20195;-73
2022/05/27 03:09:30;;;;;;;3.15;1.80;;;11.30;99.90;;;;;;5090270;28;20203;-74
2022/05/27 03:12:06;;;;;;;3.25;1.95;;;11.30;99.90;;;;;;5090126;28;20575;-74
2022/05/27 03:14:52;;;;;;;2.07;1.87;;;11.30;99.90;;;;;;5090689;28;20223;-73
2022/05/27 03:17:42;;;;;;;2.00;1.80;;;11.30;99.90;;;;;;5090389;28;20869;-74
2022/05/27 03:20:33;;;;;;;1.83;1.70;;;11.30;99.90;;;;;;5089827;28;20211;-74
2022/05/27 03:23:14;;;;;;;3.65;1.90;;;11.30;99.90;;;;;;5090161;28;20223;-74
2022/05/27 03:25:45;;;;;;;2.72;2.28;;;11.30;99.90;;;;;;5090535;28;20671;-74
2022/05/27 03:28:18;;;;;;;3.05;2.40;;;11.30;99.90;;;;;;5089581;28;20215;-74
2022/05/27 03:30:54;;;;;;;2.35;2.10;;;11.30;99.90;;;;;;5090554;28;20200;-74
2022/05/27 03:33:29;;;;;;;3.35;2.00;;;11.40;99.90;;;;;;5090993;28;20706;-74
2022/05/27 03:36:03;;;;;;;2.90;2.13;;;11.40;99.90;;;;;;5094344;28;20206;-73
2022/05/27 03:38:37;;;;;;;5.50;2.40;;;11.50;99.90;;;;;;5093908;28;20204;-74
2022/05/27 03:41:08;;;;;;;2.58;2.33;;;11.50;99.90;;;;;;5093972;28;20206;-74
2022/05/27 03:43:37;;;;;;;2.35;2.15;;;11.60;99.90;;;;;;5094361;28;20227;-74
2022/05/27 03:46:05;;;;;;;2.17;1.98;;;11.60;99.90;;;;;;5096534;28;20207;-74
2022/05/27 03:48:34;;;;;;;3.08;1.80;;;11.70;99.90;;;;;;5094011;28;20200;-73
2022/05/27 03:51:07;;;;;;;3.10;2.20;;;11.70;99.90;;;;;;5093580;28;20244;-73
2022/05/27 03:56:18;;;;;;;2.67;2.20;;;11.80;99.90;;;;;;5093988;28;20325;-73
2022/05/27 03:58:45;;;;;;;2.60;1.80;;;11.80;99.90;;;;;;5093490;28;20662;-73
2022/05/27 04:01:12;;;;;;;2.42;1.90;;;11.90;99.90;;;;;;5093842;28;20204;-73
2022/05/27 04:03:38;;;;;;;2.27;2.07;;;11.90;99.90;;;;;;5093780;28;20227;-73
2022/05/27 04:06:06;;;;;;;4.32;2.38;;;12.00;99.90;;;;;;5093784;28;20808;-73
2022/05/27 04:08:34;;;;;;;2.30;1.90;;;12.00;99.90;;;;;;5093367;28;20196;-73
2022/05/27 04:11:00;;;;;;;2.97;2.42;;;12.00;99.90;;;;;;5093508;28;20238;-73
2022/05/27 04:13:27;;;;;;;2.10;1.90;;;12.10;99.90;;;;;;5093548;28;20589;-73
2022/05/27 04:15:54;;;;;;;3.83;2.30;;;12.10;99.90;;;;;;5093485;28;20490;-73
2022/05/27 04:18:21;;;;;;;2.38;2.17;;;12.10;99.90;;;;;;5093086;28;20203;-73
2022/05/27 04:20:47;;;;;;;2.30;2.10;;;12.10;99.90;;;;;;5093467;28;20204;-73
2022/05/27 04:23:15;;;;;;;3.85;2.15;;;12.10;99.90;;;;;;5093240;28;20477;-73
2022/05/27 04:25:46;;;;;;;2.70;2.05;;;12.20;99.90;;;;;;5093291;28;20196;-73
2022/05/27 04:28:12;;;;;;;3.67;2.28;;;12.30;99.90;;;;;;5092783;28;20211;-73
2022/05/27 04:30:39;;;;;;;2.40;2.20;;;12.30;99.90;;;;;;5093304;28;20203;-73
2022/05/27 04:33:06;;;;;;;3.57;2.50;;;12.40;99.90;;;;;;5092993;28;20223;-73
2022/05/27 04:35:32;;;;;;;3.20;2.37;;;12.50;99.90;;;;;;5093493;28;20900;-73
2022/05/27 04:37:59;;;;;;;3.35;1.95;;;12.50;99.90;;;;;;5092426;28;20466;-72
2022/05/27 04:40:27;;;;;;;2.23;2.03;;;12.60;99.90;;;;;;5094456;28;20200;-73
2022/05/27 04:42:54;;;;;;;2.70;2.03;;;12.60;99.90;;;;;;5093654;28;20485;-73
2022/05/27 04:45:21;;;;;;;2.77;2.30;;;12.60;99.90;;;;;;5092882;28;20872;-74
2022/05/27 04:47:48;;;;;;;3.33;2.33;;;12.60;99.90;;;;;;5093211;28;20464;-73
2022/05/27 04:50:15;;;;;;;2.53;2.33;;;12.60;99.90;;;;;;5092783;28;20476;-73
2022/05/27 04:52:42;;;;;;;2.75;2.40;;;12.60;99.90;;;;;;5093190;28;20485;-73
2022/05/27 04:55:12;;;;;;;3.50;2.40;;;12.60;99.90;;;;;;5092742;28;20220;-73
2022/05/27 04:57:44;;;;;;;3.13;1.93;;;12.60;99.90;;;;;;5093211;28;20461;-74
2022/05/27 05:00:13;;;;;;;1.93;1.80;;;12.60;99.90;;;;;;5092101;28;20462;-73
2022/05/27 05:02:41;;;;;;;1.90;1.80;;;12.70;99.90;;;;;;5092973;28;20481;-73
2022/05/27 05:05:09;;;;;;;2.20;2.00;;;12.70;99.90;;;;;;5092769;28;20513;-73
2022/05/27 05:07:37;;;;;;;3.13;2.30;;;12.70;99.90;;;;;;5092802;28;20464;-73
2022/05/27 05:10:04;;;;;;;3.47;2.07;;;12.80;99.90;;;;;;5091781;28;20461;-74
2022/05/27 05:12:30;;;;;;;3.05;2.25;;;12.90;99.90;;;;;;5092454;28;20492;-73
2022/05/27 05:14:59;;;;;;;2.33;1.90;;;12.90;99.90;;;;;;5092319;28;20220;-73
2022/05/27 05:17:26;;;;;;;3.63;2.70;;;13.00;99.90;;;;;;5092367;28;20462;-74
2022/05/27 05:19:55;;;;;;;2.60;2.40;;;13.10;99.90;;;;;;5091999;28;20462;-73
2022/05/27 05:22:22;;;;;;;3.23;1.97;;;13.20;99.90;;;;;;5091955;28;20485;-74
2022/05/27 05:24:49;;;;;;;2.33;2.13;;;13.20;99.90;;;;;;5092477;28;20465;-74
2022/05/27 05:27:16;;;;;;;3.93;2.60;;;13.20;99.90;;;;;;5092038;28;20536;-74
2022/05/27 05:29:42;;;;;;;2.47;2.20;;;13.30;99.90;;;;;;5092064;28;20458;-74
2022/05/27 05:32:10;;;;;;;2.40;2.20;;;13.40;99.90;;;;;;5092035;28;20485;-74
2022/05/27 05:34:37;;;;;;;2.70;2.47;;;13.40;99.90;;;;;;5091863;28;20481;-74
2022/05/27 05:37:04;;;;;;;2.80;2.60;;;13.50;99.90;;;;;;5091885;28;20462;-73
2022/05/27 05:39:31;;;;;;;3.20;2.20;;;13.60;99.90;;;;;;5091312;28;20465;-74
2022/05/27 05:42:00;;;;;;;3.10;2.43;;;13.70;99.90;;;;;;5091752;28;21000;-74
2022/05/27 05:44:27;;;;;;;3.03;2.03;;;13.70;99.90;;;;;;5091769;28;20477;-74
2022/05/27 05:46:55;;;;;;;2.40;2.20;;;13.80;99.90;;;;;;5112909;22;20458;-95
2022/05/27 05:49:23;;;;;;;3.87;2.10;;;13.90;99.90;;;;;;5084661;28;20450;-95
2022/05/27 05:51:51;;;;;;;2.50;2.20;;;13.90;99.90;;;;;;5089937;28;20449;-96
2022/05/27 05:54:19;;;;;;;3.03;2.37;;;14.00;99.90;;;;;;5090975;28;20466;-93
2022/05/27 05:56:46;;;;;;;3.10;2.47;;;14.00;99.90;;;;;;5087353;28;20478;-91
2022/05/27 05:59:14;;;;;;;2.67;2.47;;;14.10;99.90;;;;;;5086353;28;20571;-94
2022/05/27 06:01:41;;;;;;;3.17;2.23;;;14.10;99.90;;;;;;5085833;28;20554;-94
2022/05/27 06:04:08;;;;;;;4.37;2.30;;;14.20;99.90;;;;;;5086641;28;20457;-95
2022/05/27 06:06:37;;;;;;;4.43;2.17;;;14.20;99.90;;;;;;5076443;28;20454;-94
2022/05/27 06:09:04;;;;;;;5.60;2.60;;;14.20;99.90;;;;;;5092208;28;20446;-95
2022/05/27 06:11:31;;;;;;;4.67;2.30;;;14.20;99.90;;;;;;5094828;28;20443;-94
2022/05/27 06:13:58;;;;;;;3.53;2.53;;;14.30;99.90;;;;;;5083286;28;20463;-93
2022/05/27 06:16:25;;;;;;;3.23;2.30;;;14.30;99.90;;;;;;5093711;28;20554;-93
2022/05/27 06:18:52;;;;;;;3.20;2.57;;;14.40;99.90;;;;;;5083786;28;20492;-93
2022/05/27 06:21:19;;;;;;;2.50;2.30;;;14.50;99.90;;;;;;5085191;28;20510;-94
2022/05/27 06:23:48;;;;;;;5.67;2.40;;;14.50;99.90;;;;;;5084005;28;21015;-91
2022/05/27 06:26:15;;;;;;;3.50;2.60;;;14.50;99.90;;;;;;5076052;28;20463;-91
2022/05/27 06:34:48;;;;;;;3.00;2.70;;;14.60;99.90;;;;;;5112146;28;20479;-74
2022/05/27 06:37:18;;;;;;;2.87;2.67;;;14.60;99.90;;;;;;5113061;28;20464;-74
2022/05/27 06:39:47;;;;;;;3.30;2.47;;;14.60;99.90;;;;;;5112280;28;20459;-74
2022/05/27 06:42:15;;;;;;;3.70;2.40;;;14.60;99.90;;;;;;5112896;28;20481;-74
2022/05/27 06:44:43;;;;;;;4.53;2.57;;;14.60;99.90;;;;;;5112794;28;20827;-74
2022/05/27 06:47:13;;;;;;;3.63;2.93;;;14.60;99.90;;;;;;5112905;28;20483;-74
2022/05/27 06:49:43;;;;;;;3.00;2.70;;;14.70;99.90;;;;;;5111503;28;20506;-75
2022/05/27 06:52:11;;;;;;;2.60;2.40;;;14.70;99.90;;;;;;5111577;28;20479;-75
2022/05/27 06:54:38;;;;;;;3.03;2.40;;;14.80;99.90;;;;;;5111784;28;20456;-75
2022/05/27 06:57:08;;;;;;;3.30;2.70;;;14.80;99.90;;;;;;5106992;28;20468;-75
2022/05/27 06:59:35;;;;;;;3.60;2.23;;;14.80;99.90;;;;;;5107389;28;20468;-75
2022/05/27 07:02:03;;;;;;;3.60;2.73;;;14.80;99.90;;;;;;5110104;28;20837;-75
2022/05/27 07:04:29;;;;;;;3.50;3.10;;;14.80;99.90;;;;;;5109579;28;20461;-75
2022/05/27 07:06:57;;;;;;;4.17;2.50;;;14.80;99.90;;;;;;5110206;28;20956;-73
2022/05/27 07:09:25;;;;;;;3.60;2.77;;;14.80;99.90;;;;;;5110699;28;20456;-74
2022/05/27 07:11:53;;;;;;;2.93;2.60;;;14.80;99.90;;;;;;5112173;28;20460;-75
2022/05/27 07:14:21;;;;;;;2.60;2.40;;;14.80;99.90;;;;;;5112355;28;20461;-75
2022/05/27 07:16:49;;;;;;;5.93;2.57;;;14.80;99.90;;;;;;5112486;28;20491;-75
2022/05/27 07:19:19;;;;;;;3.17;2.87;;;14.80;99.90;;;;;;5110992;28;20461;-74
2022/05/27 07:21:47;;;;;;;3.50;2.57;;;14.80;99.90;;;;;;5111436;28;20486;-73
2022/05/27 07:24:15;;;;;;;2.70;2.47;;;14.80;99.90;;;;;;5112217;28;20460;-73
2022/05/27 07:26:43;;;;;;;5.90;3.40;;;14.70;99.90;;;;;;5111594;28;20465;-73
2022/05/27 07:29:10;;;;;;;2.93;2.70;;;14.70;99.90;;;;;;5111028;28;20460;-74
2022/05/27 07:31:40;;;;;;;3.07;2.80;;;14.70;99.90;;;;;;5110572;28;20951;-74
2022/05/27 07:34:07;;;;;;;2.97;2.50;;;14.70;99.90;;;;;;5090778;28;20458;-74
2022/05/27 07:36:34;;;;;;;4.20;3.03;;;14.70;99.90;;;;;;5091061;28;20481;-74
2022/05/27 07:39:00;;;;;;;3.73;2.70;;;14.70;99.90;;;;;;5090865;28;21143;-74
2022/05/27 07:41:28;;;;;;;2.80;2.60;;;14.80;99.90;;;;;;5091274;28;20458;-74
2022/05/27 07:43:56;;;;;;;3.37;2.70;;;14.80;99.90;;;;;;5093297;28;20486;-75
2022/05/27 07:46:24;;;;;;;2.60;2.40;;;14.90;99.90;;;;;;5092855;28;20461;-75
2022/05/27 07:48:52;;;;;;;4.03;2.67;;;15.00;99.90;;;;;;5091545;28;20548;-76
2022/05/27 07:51:20;;;;;;;3.93;2.83;;;15.10;99.90;;;;;;5092270;28;20461;-74
2022/05/27 07:53:46;;;;;;;3.67;3.07;;;15.20;99.90;;;;;;5093116;28;20482;-76
2022/05/27 07:56:13;;;;;;;5.33;2.60;;;15.20;99.90;;;;;;5091928;28;20473;-75
2022/05/27 07:58:40;;;;;;;5.37;3.30;;;15.30;99.90;;;;;;5091766;28;20800;-76
2022/05/27 08:01:08;;;;;;;4.27;3.40;;;15.40;99.90;;;;;;5093008;28;20469;-76
2022/05/27 08:03:35;;;;;;;2.87;2.57;;;15.40;99.90;;;;;;5091911;28;20477;-77
2022/05/27 08:06:04;;;;;;;5.87;2.60;;;15.50;99.90;;;;;;5093121;28;20836;-76
2022/05/27 08:08:31;;;;;;;3.53;2.80;;;15.60;99.90;;;;;;5091837;28;20453;-75
2022/05/27 08:10:58;;;;;;;4.00;2.53;;;15.70;99.90;;;;;;5091779;28;20461;-75
2022/05/27 08:13:25;;;;;;;2.97;2.53;;;15.80;99.90;;;;;;5092126;28;20484;-74
2022/05/27 08:15:53;;;;;;;3.67;2.57;;;15.90;99.90;;;;;;5092554;28;20508;-75
2022/05/27 08:18:20;;;;;;;5.07;2.80;;;15.90;99.90;;;;;;5092098;28;20469;-74
2022/05/27 08:20:47;;;;;;;4.07;3.03;;;16.00;99.90;;;;;;5091814;28;20457;-75
2022/05/27 08:23:15;;;;;;;3.57;2.47;;;16.00;99.90;;;;;;5091925;28;20474;-73
2022/05/27 08:25:43;;;;;;;3.43;2.60;;;16.10;99.90;;;;;;5092334;28;20461;-75
2022/05/27 08:28:10;;;;;;;3.00;2.40;;;16.10;99.90;;;;;;5091802;28;20496;-75
2022/05/27 08:30:39;;;;;;;3.93;2.27;;;16.10;99.90;;;;;;5092414;28;20454;-74
2022/05/27 08:33:06;;;;;;;3.10;2.20;;;16.20;99.90;;;;;;5092102;28;20493;-74
2022/05/27 08:38:21;;;;;;;7.83;2.60;;;16.30;99.90;;;;;;5091881;28;20939;-73
2022/05/27 08:41:04;;;;;;;4.50;2.50;;;16.30;99.90;;;;;;5091899;28;20460;-73
2022/05/27 08:43:37;;;;;;;2.73;2.53;;;16.20;99.90;;;;;;5091287;28;20473;-72
2022/05/27 08:46:14;;;;;;;2.50;2.30;;;16.00;99.90;;;;;;5092492;28;20503;-72
2022/05/27 08:48:44;;;;;;;2.50;2.30;;;16.00;99.90;;;;;;5090580;28;20799;-72
2022/05/27 08:51:17;;;;;;;3.20;2.10;;;15.90;99.90;;;;;;5092197;28;20831;-72
2022/05/27 08:53:49;;;;;;;3.20;2.10;;;15.80;99.90;;;;;;5091265;28;20546;-72
2022/05/27 08:59:31;;;;;;;3.47;2.73;;;15.90;99.90;;;;;;5091408;28;20453;-73
2022/05/27 09:02:03;;;;;;;4.07;2.60;;;15.90;99.90;;;;;;5091541;28;20513;-71
2022/05/27 09:04:36;;;;;;;2.87;2.40;;;16.00;99.90;;;;;;5091708;28;20468;-72
2022/05/27 09:07:21;;;;;;;3.37;3.07;;;16.00;99.90;;;;;;5091935;28;20828;-74
2022/05/27 09:09:51;;;;;;;5.27;2.37;;;16.00;99.90;;;;;;5088282;28;20468;-74
2022/05/27 09:12:29;;;;;;;3.30;2.57;;;15.90;99.90;;;;;;5090105;28;20480;-74
2022/05/27 09:15:02;;;;;;;3.20;2.37;;;16.00;99.90;;;;;;5090636;28;20457;-74
2022/05/27 09:17:38;;;;;;;3.63;2.50;;;16.00;99.90;;;;;;5089368;28;20505;-74
2022/05/27 09:20:17;;;;;;;3.73;2.40;;;16.10;99.90;;;;;;5089717;28;20814;-73
2022/05/27 09:22:56;;;;;;;3.23;2.93;;;16.20;99.90;;;;;;5088068;28;20910;-73
2022/05/27 09:25:33;;;;;;;2.60;2.40;;;16.20;99.90;;;;;;5090135;28;20457;-74
2022/05/27 09:28:08;;;;;;;3.00;2.70;;;16.40;99.90;;;;;;5088050;28;20457;-73
2022/05/27 09:30:36;;;;;;;2.87;2.20;;;16.60;99.90;;;;;;5087014;28;20457;-73
2022/05/27 09:33:06;;;;;;;3.33;2.30;;;16.70;99.90;;;;;;5088900;28;20488;-74
2022/05/27 09:35:37;;;;;;;2.90;2.40;;;16.90;99.90;;;;;;5089643;28;20489;-74
2022/05/27 09:38:06;;;;;;;2.30;2.10;;;17.10;99.90;;;;;;5085646;28;20944;-74
2022/05/27 09:40:39;;;;;;;3.77;2.33;;;17.40;99.90;;;;;;5086134;28;20476;-74
2022/05/27 09:43:12;;;;;;;3.53;2.37;;;17.70;99.90;;;;;;5088600;28;20481;-73
2022/05/27 09:45:40;;;;;;;2.73;2.20;;;18.00;99.90;;;;;;5089265;28;20449;-73
2022/05/27 09:48:10;;;;;;;2.37;2.00;;;18.20;99.90;;;;;;5088339;28;20987;-72
2022/05/27 09:50:40;;;;;;;8.00;2.13;;;18.20;99.90;;;;;;5088874;28;20477;-74
2022/05/27 09:53:11;;;;;;;2.40;2.17;;;18.30;99.90;;;;;;5088732;28;20477;-73
2022/05/27 09:55:46;;;;;;;2.37;1.90;;;18.30;99.90;;;;;;5088245;28;20464;-74
2022/05/27 09:58:13;;;;;;;2.07;1.60;;;18.40;99.90;;;;;;5088781;28;20457;-72
2022/05/27 10:00:44;;;;;;;2.40;1.90;;;18.50;99.90;;;;;;5088321;28;20826;-74
2022/05/27 10:03:36;;;;;;;2.13;1.93;;;18.40;99.90;;;;;;5088750;28;20478;-74
2022/05/27 10:06:08;;;;;;;3.67;2.23;;;18.30;99.90;;;;;;5089268;28;20454;-74
2022/05/27 10:08:39;;;;;;;3.00;2.20;;;18.40;99.90;;;;;;5087357;28;20454;-72
2022/05/27 10:11:20;;;;;;;3.83;2.10;;;18.50;99.90;;;;;;5088929;28;20460;-73
2022/05/27 10:13:48;;;;;;;4.90;2.17;;;18.70;99.90;;;;;;5086533;28;20477;-74
2022/05/27 10:16:23;;;;;;;2.00;1.90;;;18.80;99.90;;;;;;5088332;28;20504;-74
2022/05/27 10:19:07;;;;;;;2.43;2.10;;;18.80;99.90;;;;;;5088374;28;20472;-72
2022/05/27 10:21:47;;;;;;;3.37;1.87;;;18.70;99.90;;;;;;5087758;28;20457;-74
2022/05/27 10:24:17;;;;;;;2.20;1.73;;;18.70;99.90;;;;;;5087772;28;20941;-75
2022/05/27 10:26:46;;;;;;;2.27;2.07;;;18.90;99.90;;;;;;5088138;28;20878;-74
2022/05/27 10:29:15;;;;;;;1.73;1.57;;;19.20;99.90;;;;;;5087564;28;20549;-73
2022/05/27 10:31:50;;;;;;;4.53;1.93;;;19.40;99.90;;;;;;5087346;28;20545;-76
2022/05/27 10:34:38;;;;;;;5.80;1.77;;;19.40;99.40;;;;;;5087519;28;20453;-74
2022/05/27 10:37:10;;;;;;;2.20;1.60;;;19.60;99.90;;;;;;5088471;28;20473;-72
2022/05/27 10:39:45;;;;;;;2.30;1.80;;;19.70;99.90;;;;;;5086926;28;20485;-70
2022/05/27 10:42:28;;;;;;;2.40;1.73;;;20.00;99.90;;;;;;5087768;28;20480;-76
2022/05/27 10:45:09;;;;;;;2.70;2.50;;;20.30;99.90;;;;;;5088197;28;20830;-73
2022/05/27 10:48:11;;;;;;;4.37;1.77;;;20.60;99.70;;;;;;5087961;28;20452;-75
2022/05/27 10:50:44;;;;;;;2.23;1.60;;;20.70;98.70;;;;;;5089174;28;20458;-71
2022/05/27 10:53:32;;;;;;;2.03;1.87;;;20.80;98.80;;;;;;5087028;28;20481;-74
2022/05/27 10:56:10;;;;;;;2.07;1.90;;;20.90;99.40;;;;;;5088388;28;21102;-74
2022/05/27 11:02:06;;;;;;;2.43;2.00;;;21.00;97.60;;;;;;5050770;28;20593;-73
2022/05/27 11:05:11;;;;;;;2.00;1.80;;;20.90;97.20;;;;;;5087291;28;20457;-74
2022/05/27 11:07:49;;;;;;;2.73;1.70;;;20.80;98.90;;;;;;5053153;28;20462;-74
2022/05/27 11:10:38;;;;;;;2.70;1.93;;;20.80;97.70;;;;;;5087603;28;20775;-75
2022/05/27 11:16:19;;;;;;;1.90;1.80;;;20.40;96.80;;;;;;5089978;28;20947;-74
2022/05/27 11:19:01;;;;;;;2.33;1.80;;;20.30;97.60;;;;;;5089300;28;20453;-74
2022/05/27 11:21:46;;;;;;;1.70;1.60;;;20.20;97.20;;;;;;5089980;28;20461;-74
2022/05/27 11:24:32;;;;;;;1.70;1.60;;;20.20;97.30;;;;;;5089814;28;20496;-74
2022/05/27 11:27:09;;;;;;;1.67;1.57;;;20.10;97.90;;;;;;5090009;28;20472;-74
2022/05/27 11:29:58;;;;;;;4.30;1.40;;;20.10;98.00;;;;;;5089095;28;20967;-74
2022/05/27 11:32:44;;;;;;;1.77;1.50;;;20.00;97.50;;;;;;5089222;28;20489;-75
2022/05/27 11:35:17;;;;;;;1.80;1.70;;;19.80;97.40;;;;;;5088454;28;20542;-73
2022/05/27 11:37:54;;;;;;;1.53;1.43;;;19.70;96.80;;;;;;5091506;28;20496;-70
2022/05/27 11:40:33;;;;;;;2.80;1.80;;;19.50;97.70;;;;;;5088897;28;20460;-71
2022/05/27 11:43:28;;;;;;;3.57;1.90;;;19.50;97.80;;;;;;5087538;28;20484;-71
2022/05/27 11:46:08;;;;;;;2.23;1.90;;;19.30;98.10;;;;;;5087526;28;20465;-73
2022/05/27 11:48:45;;;;;;;2.47;1.70;;;19.30;98.40;;;;;;5086518;28;20454;-74
2022/05/27 11:51:28;;;;;;;1.60;1.50;;;19.20;98.60;;;;;;5087599;28;20464;-75
2022/05/27 11:54:09;;;;;;;3.50;1.60;;;19.20;98.80;;;;;;5087137;28;20477;-75
2022/05/27 11:56:48;;;;;;;2.17;1.70;;;19.10;98.60;;;;;;5090503;28;20833;-74
2022/05/27 11:59:24;;;;;;;2.07;1.27;;;19.10;98.90;;;;;;5088418;28;20457;-74
2022/05/27 12:01:56;;;;;;;2.20;1.60;;;19.00;99.40;;;;;;5089760;28;20459;-72
2022/05/27 12:04:33;;;;;;;2.30;1.60;;;19.10;99.30;;;;;;5090802;28;20459;-72
2022/05/27 12:07:10;;;;;;;2.33;1.77;;;18.90;99.10;;;;;;5090843;28;20844;-70
2022/05/27 12:09:45;;;;;;;1.97;1.63;;;18.80;99.40;;;;;;5090456;28;20453;-71
2022/05/27 12:12:19;;;;;;;1.40;1.30;;;18.70;99.40;;;;;;5091065;28;20987;-71
2022/05/27 12:14:50;;;;;;;2.57;1.60;;;18.70;99.60;;;;;;5091386;28;20488;-72
2022/05/27 12:17:21;;;;;;;3.10;1.63;;;18.90;99.90;;;;;;5092535;28;20844;-71
2022/05/27 12:19:56;;;;;;;1.70;1.60;;;19.20;99.90;;;;;;5091272;28;20534;-69
2022/05/27 12:22:27;;;;;;;2.83;1.70;;;19.40;99.70;;;;;;5090830;28;20534;-69
2022/05/27 12:24:58;;;;;;;4.30;1.63;;;19.50;99.90;;;;;;5090461;28;20465;-75
2022/05/27 12:27:25;;;;;;;2.30;1.90;;;19.60;99.40;;;;;;5090521;28;20465;-75
2022/05/27 12:29:53;;;;;;;2.33;1.97;;;19.40;99.60;;;;;;5089727;28;20826;-75
2022/05/27 12:32:23;;;;;;;2.23;1.53;;;19.40;99.40;;;;;;5089969;28;20497;-71
2022/05/27 12:34:52;;;;;;;5.50;1.87;;;19.40;99.70;;;;;;5090293;28;20466;-72
2022/05/27 12:37:24;;;;;;;1.43;1.33;;;19.40;99.50;;;;;;5087408;28;20485;-71
2022/05/27 12:39:55;;;;;;;2.47;1.90;;;19.50;99.90;;;;;;5087448;28;20489;-72
2022/05/27 12:42:34;;;;;;;1.50;1.40;;;19.40;99.30;;;;;;5089346;28;20532;-72
2022/05/27 12:45:13;;;;;;;1.90;1.40;;;19.40;99.90;;;;;;5089361;28;20464;-71
2022/05/27 12:47:40;;;;;;;2.03;1.63;;;19.40;99.90;;;;;;5090234;28;20457;-72
2022/05/27 12:50:17;;;;;;;1.80;1.70;;;19.40;99.40;;;;;;5089449;28;20461;-72
2022/05/27 12:52:54;;;;;;;1.93;1.70;;;19.30;99.50;;;;;;5087934;28;20476;-71
2022/05/27 13:01:27;;;;;;;1.67;1.57;;;19.50;99.90;;;;;;5089886;28;20488;-76
2022/05/27 13:03:59;;;;;;;2.83;1.60;;;19.70;99.90;;;;;;5089634;28;20505;-71
2022/05/27 13:06:40;;;;;;;2.27;1.70;;;19.80;99.70;;;;;;5088900;28;20960;-70
2022/05/27 13:09:09;;;;;;;3.27;1.73;;;19.80;99.80;;;;;;5089911;28;20458;-75
2022/05/27 13:11:46;;;;;;;2.10;1.43;;;19.80;99.70;;;;;;5090332;28;20454;-75
2022/05/27 13:14:19;;;;;;;1.60;1.50;;;19.80;99.40;;;;;;5088996;28;20464;-71
2022/05/27 13:16:52;;;;;;;1.60;1.43;;;19.60;99.40;;;;;;5089276;28;20485;-73
2022/05/27 13:19:28;;;;;;;1.43;1.33;;;19.70;99.90;;;;;;5089368;28;20453;-74
2022/05/27 13:21:58;;;;;;;2.93;1.60;;;19.70;99.20;;;;;;5089583;28;20457;-74
2022/05/27 13:24:32;;;;;;;1.70;1.60;;;19.60;99.60;;;;;;5089032;28;20458;-73
2022/05/27 13:27:03;;;;;;;2.13;1.47;;;19.60;99.60;;;;;;5089978;28;20465;-74
2022/05/27 13:29:33;;;;;;;2.10;1.80;;;19.60;99.90;;;;;;5088473;28;20820;-71
2022/05/27 13:32:04;;;;;;;1.60;1.40;;;19.60;99.90;;;;;;5089786;28;20489;-71
2022/05/27 13:34:40;;;;;;;2.20;2.00;;;19.60;99.90;;;;;;5088044;28;20461;-70
2022/05/27 13:37:16;;;;;;;2.20;2.00;;;19.70;99.90;;;;;;5088535;28;20504;-70
2022/05/27 13:39:48;;;;;;;2.80;1.97;;;19.70;99.90;;;;;;5088300;28;20468;-70
2022/05/27 13:42:29;;;;;;;2.43;1.77;;;19.70;99.90;;;;;;5088999;28;20482;-70